sensor_id;sensor_type;location;lat;lon;timestamp;P1;durP1;ratioP1;P2;durP2;ratioP2
4933;SDS011;2482;49.154;8.254;2024-02-14T00:01:48;6.53;;;5.03;;
4933;SDS011;2482;49.154;8.254;2024-02-14T00:04:16;9.70;;;5.17;;
4933;SDS011;2482;49.154;8.254;2024-02-14T00:06:45;7.53;;;5.23;;
4933;SDS011;2482;49.154;8.254;2024-02-14T00:09:12;6.20;;;4.73;;
4933;SDS011;2482;49.154;8.254;2024-02-14T00:11:40;7.23;;;5.20;;
4933;SDS011;2482;49.154;8.254;2024-02-14T00:14:07;9.90;;;5.40;;
4933;SDS011;2482;49.154;8.254;2024-02-14T00:16:34;8.90;;;6.10;;
4933;SDS011;2482;49.154;8.254;2024-02-14T00:19:04;7.47;;;5.40;;
4933;SDS011;2482;49.154;8.254;2024-02-14T00:21:31;7.23;;;5.07;;
4933;SDS011;2482;49.154;8.254;2024-02-14T00:24:01;7.83;;;4.90;;
4933;SDS011;2482;49.154;8.254;2024-02-14T00:26:28;6.93;;;4.90;;
4933;SDS011;2482;49.154;8.254;2024-02-14T00:28:56;8.73;;;5.60;;
4933;SDS011;2482;49.154;8.254;2024-02-14T00:31:23;9.00;;;5.93;;
4933;SDS011;2482;49.154;8.254;2024-02-14T00:33:50;12.40;;;5.93;;
4933;SDS011;2482;49.154;8.254;2024-02-14T00:36:18;12.03;;;6.07;;
4933;SDS011;2482;49.154;8.254;2024-02-14T00:38:46;9.40;;;5.43;;
4933;SDS011;2482;49.154;8.254;2024-02-14T00:41:13;8.90;;;5.90;;
4933;SDS011;2482;49.154;8.254;2024-02-14T00:43:40;8.23;;;5.93;;
4933;SDS011;2482;49.154;8.254;2024-02-14T00:46:07;12.13;;;6.13;;
4933;SDS011;2482;49.154;8.254;2024-02-14T00:48:34;11.30;;;5.73;;
4933;SDS011;2482;49.154;8.254;2024-02-14T00:51:01;11.00;;;6.47;;
4933;SDS011;2482;49.154;8.254;2024-02-14T00:53:29;8.37;;;6.03;;
4933;SDS011;2482;49.154;8.254;2024-02-14T00:55:58;8.17;;;5.60;;
4933;SDS011;2482;49.154;8.254;2024-02-14T00:58:26;10.40;;;6.27;;
4933;SDS011;2482;49.154;8.254;2024-02-14T01:00:53;13.60;;;6.67;;
4933;SDS011;2482;49.154;8.254;2024-02-14T01:03:21;8.50;;;5.60;;
4933;SDS011;2482;49.154;8.254;2024-02-14T01:05:49;8.80;;;5.67;;
4933;SDS011;2482;49.154;8.254;2024-02-14T01:08:16;12.80;;;6.60;;
4933;SDS011;2482;49.154;8.254;2024-02-14T01:10:43;8.27;;;6.10;;
4933;SDS011;2482;49.154;8.254;2024-02-14T01:13:13;7.70;;;5.77;;
4933;SDS011;2482;49.154;8.254;2024-02-14T01:15:39;6.23;;;5.20;;
4933;SDS011;2482;49.154;8.254;2024-02-14T01:18:08;8.97;;;5.80;;
4933;SDS011;2482;49.154;8.254;2024-02-14T01:20:35;5.43;;;4.50;;
4933;SDS011;2482;49.154;8.254;2024-02-14T01:23:03;8.90;;;6.47;;
4933;SDS011;2482;49.154;8.254;2024-02-14T01:25:31;9.37;;;5.30;;
4933;SDS011;2482;49.154;8.254;2024-02-14T01:27:59;7.43;;;5.20;;
4933;SDS011;2482;49.154;8.254;2024-02-14T01:30:26;10.77;;;5.43;;
4933;SDS011;2482;49.154;8.254;2024-02-14T01:32:53;7.77;;;5.53;;
4933;SDS011;2482;49.154;8.254;2024-02-14T01:35:21;5.77;;;4.73;;
4933;SDS011;2482;49.154;8.254;2024-02-14T01:37:49;9.87;;;6.23;;
4933;SDS011;2482;49.154;8.254;2024-02-14T01:40:18;10.70;;;5.43;;
4933;SDS011;2482;49.154;8.254;2024-02-14T01:42:45;11.60;;;5.30;;
4933;SDS011;2482;49.154;8.254;2024-02-14T01:45:12;8.50;;;5.83;;
4933;SDS011;2482;49.154;8.254;2024-02-14T01:47:39;8.73;;;5.43;;
4933;SDS011;2482;49.154;8.254;2024-02-14T01:50:08;8.97;;;5.30;;
4933;SDS011;2482;49.154;8.254;2024-02-14T01:52:38;8.53;;;5.80;;
4933;SDS011;2482;49.154;8.254;2024-02-14T01:55:06;7.10;;;5.73;;
4933;SDS011;2482;49.154;8.254;2024-02-14T01:57:34;8.67;;;5.40;;
4933;SDS011;2482;49.154;8.254;2024-02-14T02:00:02;12.30;;;6.50;;
4933;SDS011;2482;49.154;8.254;2024-02-14T02:02:35;10.27;;;6.07;;
4933;SDS011;2482;49.154;8.254;2024-02-14T02:05:03;9.10;;;5.90;;
4933;SDS011;2482;49.154;8.254;2024-02-14T02:07:31;9.50;;;6.13;;
4933;SDS011;2482;49.154;8.254;2024-02-14T02:09:59;12.40;;;6.70;;
4933;SDS011;2482;49.154;8.254;2024-02-14T02:12:26;11.23;;;5.87;;
4933;SDS011;2482;49.154;8.254;2024-02-14T02:14:54;11.40;;;6.93;;
4933;SDS011;2482;49.154;8.254;2024-02-14T02:17:21;11.27;;;7.00;;
4933;SDS011;2482;49.154;8.254;2024-02-14T02:19:49;11.27;;;6.97;;
4933;SDS011;2482;49.154;8.254;2024-02-14T02:22:16;11.60;;;7.20;;
4933;SDS011;2482;49.154;8.254;2024-02-14T02:24:43;10.30;;;6.90;;
4933;SDS011;2482;49.154;8.254;2024-02-14T02:27:12;18.40;;;7.90;;
4933;SDS011;2482;49.154;8.254;2024-02-14T02:29:42;11.50;;;6.73;;
4933;SDS011;2482;49.154;8.254;2024-02-14T02:32:10;8.60;;;6.43;;
4933;SDS011;2482;49.154;8.254;2024-02-14T02:34:37;11.37;;;6.57;;
4933;SDS011;2482;49.154;8.254;2024-02-14T02:37:05;11.53;;;6.90;;
4933;SDS011;2482;49.154;8.254;2024-02-14T02:39:36;8.97;;;6.70;;
4933;SDS011;2482;49.154;8.254;2024-02-14T02:42:04;11.07;;;6.27;;
4933;SDS011;2482;49.154;8.254;2024-02-14T02:44:31;6.90;;;5.60;;
4933;SDS011;2482;49.154;8.254;2024-02-14T02:46:58;6.60;;;5.90;;
4933;SDS011;2482;49.154;8.254;2024-02-14T02:49:27;9.20;;;5.67;;
4933;SDS011;2482;49.154;8.254;2024-02-14T02:51:56;8.00;;;5.97;;
4933;SDS011;2482;49.154;8.254;2024-02-14T02:54:23;8.97;;;6.20;;
4933;SDS011;2482;49.154;8.254;2024-02-14T02:56:50;7.40;;;5.70;;
4933;SDS011;2482;49.154;8.254;2024-02-14T02:59:17;10.67;;;5.87;;
4933;SDS011;2482;49.154;8.254;2024-02-14T03:01:45;8.77;;;5.27;;
4933;SDS011;2482;49.154;8.254;2024-02-14T03:04:12;10.97;;;5.50;;
4933;SDS011;2482;49.154;8.254;2024-02-14T03:06:41;8.80;;;5.73;;
4933;SDS011;2482;49.154;8.254;2024-02-14T03:09:09;10.60;;;6.10;;
4933;SDS011;2482;49.154;8.254;2024-02-14T03:11:37;9.73;;;5.40;;
4933;SDS011;2482;49.154;8.254;2024-02-14T03:14:04;6.73;;;5.63;;
4933;SDS011;2482;49.154;8.254;2024-02-14T03:16:33;7.20;;;5.87;;
4933;SDS011;2482;49.154;8.254;2024-02-14T03:21:32;7.93;;;5.30;;
4933;SDS011;2482;49.154;8.254;2024-02-14T03:24:03;7.93;;;5.30;;
4933;SDS011;2482;49.154;8.254;2024-02-14T03:26:31;8.43;;;5.07;;
4933;SDS011;2482;49.154;8.254;2024-02-14T03:29:01;9.20;;;4.60;;
4933;SDS011;2482;49.154;8.254;2024-02-14T03:31:32;8.70;;;5.23;;
4933;SDS011;2482;49.154;8.254;2024-02-14T03:34:00;8.33;;;5.40;;
4933;SDS011;2482;49.154;8.254;2024-02-14T03:36:27;8.77;;;5.30;;
4933;SDS011;2482;49.154;8.254;2024-02-14T03:38:57;9.07;;;5.50;;
4933;SDS011;2482;49.154;8.254;2024-02-14T03:41:24;8.73;;;5.70;;
4933;SDS011;2482;49.154;8.254;2024-02-14T03:43:51;8.90;;;4.63;;
4933;SDS011;2482;49.154;8.254;2024-02-14T03:46:19;7.90;;;4.23;;
4933;SDS011;2482;49.154;8.254;2024-02-14T03:48:47;5.87;;;4.17;;
4933;SDS011;2482;49.154;8.254;2024-02-14T03:51:14;10.57;;;4.97;;
4933;SDS011;2482;49.154;8.254;2024-02-14T03:53:42;6.90;;;4.10;;
4933;SDS011;2482;49.154;8.254;2024-02-14T03:56:09;11.20;;;4.13;;
4933;SDS011;2482;49.154;8.254;2024-02-14T03:58:36;12.50;;;4.87;;
4933;SDS011;2482;49.154;8.254;2024-02-14T04:01:04;8.70;;;4.17;;
4933;SDS011;2482;49.154;8.254;2024-02-14T04:03:31;5.50;;;3.63;;
4933;SDS011;2482;49.154;8.254;2024-02-14T04:05:58;8.00;;;3.80;;
4933;SDS011;2482;49.154;8.254;2024-02-14T04:08:25;6.57;;;3.90;;
4933;SDS011;2482;49.154;8.254;2024-02-14T04:10:53;6.67;;;4.13;;
4933;SDS011;2482;49.154;8.254;2024-02-14T04:13:21;6.23;;;4.20;;
4933;SDS011;2482;49.154;8.254;2024-02-14T04:15:48;8.50;;;4.10;;
4933;SDS011;2482;49.154;8.254;2024-02-14T04:18:15;6.73;;;3.90;;
4933;SDS011;2482;49.154;8.254;2024-02-14T04:20:45;4.50;;;3.63;;
4933;SDS011;2482;49.154;8.254;2024-02-14T04:23:12;6.67;;;3.80;;
4933;SDS011;2482;49.154;8.254;2024-02-14T04:25:40;4.97;;;3.73;;
4933;SDS011;2482;49.154;8.254;2024-02-14T04:28:07;9.60;;;4.40;;
4933;SDS011;2482;49.154;8.254;2024-02-14T04:30:39;6.57;;;3.53;;
4933;SDS011;2482;49.154;8.254;2024-02-14T04:33:08;7.23;;;3.80;;
4933;SDS011;2482;49.154;8.254;2024-02-14T04:35:40;7.07;;;4.30;;
4933;SDS011;2482;49.154;8.254;2024-02-14T04:38:07;8.40;;;3.43;;
4933;SDS011;2482;49.154;8.254;2024-02-14T04:40:35;5.03;;;4.00;;
4933;SDS011;2482;49.154;8.254;2024-02-14T04:43:04;7.97;;;3.63;;
4933;SDS011;2482;49.154;8.254;2024-02-14T04:45:32;5.60;;;3.73;;
4933;SDS011;2482;49.154;8.254;2024-02-14T04:48:02;6.83;;;4.00;;
4933;SDS011;2482;49.154;8.254;2024-02-14T04:50:30;6.10;;;3.77;;
4933;SDS011;2482;49.154;8.254;2024-02-14T04:52:57;10.47;;;4.50;;
4933;SDS011;2482;49.154;8.254;2024-02-14T04:55:25;6.40;;;3.47;;
4933;SDS011;2482;49.154;8.254;2024-02-14T04:57:52;5.73;;;3.33;;
4933;SDS011;2482;49.154;8.254;2024-02-14T05:00:19;7.30;;;4.00;;
4933;SDS011;2482;49.154;8.254;2024-02-14T05:02:46;10.97;;;3.90;;
4933;SDS011;2482;49.154;8.254;2024-02-14T05:05:19;5.80;;;3.73;;
4933;SDS011;2482;49.154;8.254;2024-02-14T05:07:47;7.73;;;3.97;;
4933;SDS011;2482;49.154;8.254;2024-02-14T05:10:13;6.50;;;3.30;;
4933;SDS011;2482;49.154;8.254;2024-02-14T05:12:41;6.30;;;3.27;;
4933;SDS011;2482;49.154;8.254;2024-02-14T05:15:10;5.80;;;2.87;;
4933;SDS011;2482;49.154;8.254;2024-02-14T05:17:39;5.83;;;3.23;;
4933;SDS011;2482;49.154;8.254;2024-02-14T05:20:10;6.30;;;3.10;;
4933;SDS011;2482;49.154;8.254;2024-02-14T05:22:38;5.00;;;3.70;;
4933;SDS011;2482;49.154;8.254;2024-02-14T05:25:05;4.73;;;2.80;;
4933;SDS011;2482;49.154;8.254;2024-02-14T05:27:35;8.63;;;3.30;;
4933;SDS011;2482;49.154;8.254;2024-02-14T05:30:03;5.83;;;3.60;;
4933;SDS011;2482;49.154;8.254;2024-02-14T05:32:32;5.53;;;3.10;;
4933;SDS011;2482;49.154;8.254;2024-02-14T05:35:00;8.87;;;2.87;;
4933;SDS011;2482;49.154;8.254;2024-02-14T05:37:28;5.27;;;3.13;;
4933;SDS011;2482;49.154;8.254;2024-02-14T05:39:55;4.47;;;3.50;;
4933;SDS011;2482;49.154;8.254;2024-02-14T05:42:22;4.40;;;3.00;;
4933;SDS011;2482;49.154;8.254;2024-02-14T05:44:49;6.30;;;3.60;;
4933;SDS011;2482;49.154;8.254;2024-02-14T05:47:18;6.80;;;3.00;;
4933;SDS011;2482;49.154;8.254;2024-02-14T05:49:45;6.30;;;3.17;;
4933;SDS011;2482;49.154;8.254;2024-02-14T05:52:13;6.00;;;3.33;;
4933;SDS011;2482;49.154;8.254;2024-02-14T05:54:42;6.03;;;3.33;;
4933;SDS011;2482;49.154;8.254;2024-02-14T05:57:10;3.70;;;2.80;;
4933;SDS011;2482;49.154;8.254;2024-02-14T06:04:40;4.00;;;2.77;;
4933;SDS011;2482;49.154;8.254;2024-02-14T06:07:11;5.80;;;3.00;;
4933;SDS011;2482;49.154;8.254;2024-02-14T06:09:38;6.10;;;3.57;;
4933;SDS011;2482;49.154;8.254;2024-02-14T06:12:06;5.40;;;3.37;;
4933;SDS011;2482;49.154;8.254;2024-02-14T06:14:36;9.07;;;3.00;;
4933;SDS011;2482;49.154;8.254;2024-02-14T06:17:03;5.47;;;3.30;;
4933;SDS011;2482;49.154;8.254;2024-02-14T06:19:32;5.93;;;3.30;;
4933;SDS011;2482;49.154;8.254;2024-02-14T06:22:06;6.13;;;3.10;;
4933;SDS011;2482;49.154;8.254;2024-02-14T06:24:36;4.97;;;2.93;;
4933;SDS011;2482;49.154;8.254;2024-02-14T06:27:03;4.27;;;3.23;;
4933;SDS011;2482;49.154;8.254;2024-02-14T06:29:30;4.80;;;3.60;;
4933;SDS011;2482;49.154;8.254;2024-02-14T06:31:57;5.13;;;3.17;;
4933;SDS011;2482;49.154;8.254;2024-02-14T06:34:24;9.33;;;3.10;;
4933;SDS011;2482;49.154;8.254;2024-02-14T06:36:54;8.87;;;4.10;;
4933;SDS011;2482;49.154;8.254;2024-02-14T06:39:22;6.57;;;3.40;;
4933;SDS011;2482;49.154;8.254;2024-02-14T06:41:49;6.00;;;3.57;;
4933;SDS011;2482;49.154;8.254;2024-02-14T06:44:18;5.93;;;3.43;;
4933;SDS011;2482;49.154;8.254;2024-02-14T06:46:45;3.93;;;3.40;;
4933;SDS011;2482;49.154;8.254;2024-02-14T06:49:15;7.17;;;3.10;;
4933;SDS011;2482;49.154;8.254;2024-02-14T06:51:43;8.43;;;4.20;;
4933;SDS011;2482;49.154;8.254;2024-02-14T06:54:11;9.30;;;3.43;;
4933;SDS011;2482;49.154;8.254;2024-02-14T06:56:40;6.30;;;3.13;;
4933;SDS011;2482;49.154;8.254;2024-02-14T06:59:07;4.23;;;2.90;;
4933;SDS011;2482;49.154;8.254;2024-02-14T07:01:35;7.07;;;3.20;;
4933;SDS011;2482;49.154;8.254;2024-02-14T07:04:02;8.97;;;3.57;;
4933;SDS011;2482;49.154;8.254;2024-02-14T07:06:29;4.03;;;2.90;;
4933;SDS011;2482;49.154;8.254;2024-02-14T07:08:57;6.40;;;3.90;;
4933;SDS011;2482;49.154;8.254;2024-02-14T07:11:24;3.90;;;2.67;;
4933;SDS011;2482;49.154;8.254;2024-02-14T07:13:52;7.17;;;3.80;;
4933;SDS011;2482;49.154;8.254;2024-02-14T07:16:21;5.73;;;3.10;;
4933;SDS011;2482;49.154;8.254;2024-02-14T07:18:51;5.00;;;2.90;;
4933;SDS011;2482;49.154;8.254;2024-02-14T07:21:19;6.80;;;2.93;;
4933;SDS011;2482;49.154;8.254;2024-02-14T07:23:52;5.10;;;2.73;;
4933;SDS011;2482;49.154;8.254;2024-02-14T07:26:20;10.53;;;3.47;;
4933;SDS011;2482;49.154;8.254;2024-02-14T07:28:47;9.90;;;3.07;;
4933;SDS011;2482;49.154;8.254;2024-02-14T07:31:14;4.53;;;2.90;;
4933;SDS011;2482;49.154;8.254;2024-02-14T07:33:41;5.83;;;3.30;;
4933;SDS011;2482;49.154;8.254;2024-02-14T07:36:09;5.73;;;2.63;;
4933;SDS011;2482;49.154;8.254;2024-02-14T07:38:37;9.70;;;2.53;;
4933;SDS011;2482;49.154;8.254;2024-02-14T07:41:04;3.83;;;2.60;;
4933;SDS011;2482;49.154;8.254;2024-02-14T07:43:31;5.10;;;2.63;;
4933;SDS011;2482;49.154;8.254;2024-02-14T07:45:58;7.17;;;2.60;;
4933;SDS011;2482;49.154;8.254;2024-02-14T07:48:25;9.70;;;3.37;;
4933;SDS011;2482;49.154;8.254;2024-02-14T07:50:53;5.50;;;2.43;;
4933;SDS011;2482;49.154;8.254;2024-02-14T07:53:22;6.53;;;2.33;;
4933;SDS011;2482;49.154;8.254;2024-02-14T07:55:50;5.80;;;3.20;;
4933;SDS011;2482;49.154;8.254;2024-02-14T07:58:18;4.33;;;2.83;;
4933;SDS011;2482;49.154;8.254;2024-02-14T08:00:45;6.80;;;3.50;;
4933;SDS011;2482;49.154;8.254;2024-02-14T08:03:12;5.87;;;2.50;;
4933;SDS011;2482;49.154;8.254;2024-02-14T08:05:40;5.70;;;2.73;;
4933;SDS011;2482;49.154;8.254;2024-02-14T08:08:09;6.37;;;2.70;;
4933;SDS011;2482;49.154;8.254;2024-02-14T08:10:36;4.30;;;3.50;;
4933;SDS011;2482;49.154;8.254;2024-02-14T08:13:03;6.37;;;3.23;;
4933;SDS011;2482;49.154;8.254;2024-02-14T08:15:31;4.80;;;3.00;;
4933;SDS011;2482;49.154;8.254;2024-02-14T08:17:58;6.07;;;2.83;;
4933;SDS011;2482;49.154;8.254;2024-02-14T08:20:31;6.97;;;3.00;;
4933;SDS011;2482;49.154;8.254;2024-02-14T08:22:58;4.50;;;3.03;;
4933;SDS011;2482;49.154;8.254;2024-02-14T08:25:25;7.13;;;2.90;;
4933;SDS011;2482;49.154;8.254;2024-02-14T08:27:53;5.20;;;3.03;;
4933;SDS011;2482;49.154;8.254;2024-02-14T08:30:20;6.50;;;3.20;;
4933;SDS011;2482;49.154;8.254;2024-02-14T08:32:47;8.63;;;4.50;;
4933;SDS011;2482;49.154;8.254;2024-02-14T08:35:14;4.27;;;2.80;;
4933;SDS011;2482;49.154;8.254;2024-02-14T08:37:41;5.27;;;3.30;;
4933;SDS011;2482;49.154;8.254;2024-02-14T08:40:08;9.00;;;3.27;;
4933;SDS011;2482;49.154;8.254;2024-02-14T08:42:38;6.30;;;3.13;;
4933;SDS011;2482;49.154;8.254;2024-02-14T08:45:05;5.60;;;2.80;;
4933;SDS011;2482;49.154;8.254;2024-02-14T08:47:33;7.30;;;3.30;;
4933;SDS011;2482;49.154;8.254;2024-02-14T08:50:00;8.33;;;3.97;;
4933;SDS011;2482;49.154;8.254;2024-02-14T08:52:29;8.43;;;2.77;;
4933;SDS011;2482;49.154;8.254;2024-02-14T08:54:56;3.83;;;2.90;;
4933;SDS011;2482;49.154;8.254;2024-02-14T08:57:23;5.53;;;3.10;;
4933;SDS011;2482;49.154;8.254;2024-02-14T08:59:50;5.67;;;2.87;;
4933;SDS011;2482;49.154;8.254;2024-02-14T09:02:17;3.87;;;2.50;;
4933;SDS011;2482;49.154;8.254;2024-02-14T09:04:45;5.07;;;2.47;;
4933;SDS011;2482;49.154;8.254;2024-02-14T09:07:14;3.07;;;2.47;;
4933;SDS011;2482;49.154;8.254;2024-02-14T09:09:42;3.50;;;2.10;;
4933;SDS011;2482;49.154;8.254;2024-02-14T09:12:09;8.93;;;2.70;;
4933;SDS011;2482;49.154;8.254;2024-02-14T09:14:36;5.63;;;2.90;;
4933;SDS011;2482;49.154;8.254;2024-02-14T09:17:03;4.30;;;3.30;;
4933;SDS011;2482;49.154;8.254;2024-02-14T09:19:30;5.47;;;3.33;;
4933;SDS011;2482;49.154;8.254;2024-02-14T09:21:57;5.47;;;3.03;;
4933;SDS011;2482;49.154;8.254;2024-02-14T09:24:25;2.67;;;2.40;;
4933;SDS011;2482;49.154;8.254;2024-02-14T09:26:53;4.20;;;2.80;;
4933;SDS011;2482;49.154;8.254;2024-02-14T09:29:20;7.00;;;2.90;;
4933;SDS011;2482;49.154;8.254;2024-02-14T09:31:47;4.53;;;2.63;;
4933;SDS011;2482;49.154;8.254;2024-02-14T09:34:17;5.90;;;3.13;;
4933;SDS011;2482;49.154;8.254;2024-02-14T09:36:50;6.23;;;3.83;;
4933;SDS011;2482;49.154;8.254;2024-02-14T09:39:18;6.07;;;3.47;;
4933;SDS011;2482;49.154;8.254;2024-02-14T09:41:46;7.50;;;2.67;;
4933;SDS011;2482;49.154;8.254;2024-02-14T09:44:20;5.13;;;3.13;;
4933;SDS011;2482;49.154;8.254;2024-02-14T09:46:48;5.00;;;2.37;;
4933;SDS011;2482;49.154;8.254;2024-02-14T09:49:16;4.43;;;2.20;;
4933;SDS011;2482;49.154;8.254;2024-02-14T09:51:44;4.93;;;2.60;;
4933;SDS011;2482;49.154;8.254;2024-02-14T09:54:13;7.80;;;2.90;;
4933;SDS011;2482;49.154;8.254;2024-02-14T09:56:40;5.50;;;2.60;;
4933;SDS011;2482;49.154;8.254;2024-02-14T09:59:07;4.10;;;2.73;;
4933;SDS011;2482;49.154;8.254;2024-02-14T10:01:36;4.30;;;2.83;;
4933;SDS011;2482;49.154;8.254;2024-02-14T10:04:04;4.40;;;2.50;;
4933;SDS011;2482;49.154;8.254;2024-02-14T10:06:31;15.47;;;3.17;;
4933;SDS011;2482;49.154;8.254;2024-02-14T10:09:00;3.50;;;2.97;;
4933;SDS011;2482;49.154;8.254;2024-02-14T10:11:30;3.57;;;2.13;;
4933;SDS011;2482;49.154;8.254;2024-02-14T10:13:59;2.80;;;2.40;;
4933;SDS011;2482;49.154;8.254;2024-02-14T10:16:31;6.50;;;3.20;;
4933;SDS011;2482;49.154;8.254;2024-02-14T10:18:59;3.63;;;2.57;;
4933;SDS011;2482;49.154;8.254;2024-02-14T10:21:27;7.80;;;2.60;;
4933;SDS011;2482;49.154;8.254;2024-02-14T10:23:59;4.43;;;2.80;;
4933;SDS011;2482;49.154;8.254;2024-02-14T10:26:29;3.83;;;2.13;;
4933;SDS011;2482;49.154;8.254;2024-02-14T10:28:57;4.47;;;2.40;;
4933;SDS011;2482;49.154;8.254;2024-02-14T10:31:27;3.43;;;2.17;;
4933;SDS011;2482;49.154;8.254;2024-02-14T10:33:55;6.53;;;3.40;;
4933;SDS011;2482;49.154;8.254;2024-02-14T10:36:23;4.23;;;2.80;;
4933;SDS011;2482;49.154;8.254;2024-02-14T10:38:50;3.73;;;2.43;;
4933;SDS011;2482;49.154;8.254;2024-02-14T10:41:18;4.57;;;2.60;;
4933;SDS011;2482;49.154;8.254;2024-02-14T10:43:45;5.00;;;2.33;;
4933;SDS011;2482;49.154;8.254;2024-02-14T10:46:14;4.00;;;2.27;;
4933;SDS011;2482;49.154;8.254;2024-02-14T10:48:53;2.93;;;2.30;;
4933;SDS011;2482;49.154;8.254;2024-02-14T10:51:25;4.60;;;2.93;;
4933;SDS011;2482;49.154;8.254;2024-02-14T10:53:57;6.17;;;2.43;;
4933;SDS011;2482;49.154;8.254;2024-02-14T10:56:29;7.73;;;2.60;;
4933;SDS011;2482;49.154;8.254;2024-02-14T10:59:00;2.63;;;2.13;;
4933;SDS011;2482;49.154;8.254;2024-02-14T11:01:29;5.97;;;2.50;;
4933;SDS011;2482;49.154;8.254;2024-02-14T11:03:59;3.80;;;2.70;;
4933;SDS011;2482;49.154;8.254;2024-02-14T11:06:27;3.00;;;2.40;;
4933;SDS011;2482;49.154;8.254;2024-02-14T11:09:03;4.33;;;2.80;;
4933;SDS011;2482;49.154;8.254;2024-02-14T11:11:41;3.50;;;2.13;;
4933;SDS011;2482;49.154;8.254;2024-02-14T11:14:19;4.20;;;2.20;;
4933;SDS011;2482;49.154;8.254;2024-02-14T11:16:46;5.30;;;2.33;;
4933;SDS011;2482;49.154;8.254;2024-02-14T11:19:13;3.00;;;1.90;;
4933;SDS011;2482;49.154;8.254;2024-02-14T11:21:47;5.13;;;2.17;;
4933;SDS011;2482;49.154;8.254;2024-02-14T11:24:15;2.30;;;2.07;;
4933;SDS011;2482;49.154;8.254;2024-02-14T11:26:46;3.50;;;1.80;;
4933;SDS011;2482;49.154;8.254;2024-02-14T11:29:17;3.80;;;2.17;;
4933;SDS011;2482;49.154;8.254;2024-02-14T11:31:56;3.20;;;1.60;;
4933;SDS011;2482;49.154;8.254;2024-02-14T11:34:28;2.80;;;1.90;;
4933;SDS011;2482;49.154;8.254;2024-02-14T11:37:03;5.00;;;2.60;;
4933;SDS011;2482;49.154;8.254;2024-02-14T11:39:33;2.13;;;1.33;;
4933;SDS011;2482;49.154;8.254;2024-02-14T11:42:01;1.87;;;1.67;;
4933;SDS011;2482;49.154;8.254;2024-02-14T11:44:28;2.00;;;1.50;;
4933;SDS011;2482;49.154;8.254;2024-02-14T11:46:55;2.70;;;1.87;;
4933;SDS011;2482;49.154;8.254;2024-02-14T11:49:22;3.47;;;1.70;;
4933;SDS011;2482;49.154;8.254;2024-02-14T11:51:50;1.53;;;1.20;;
4933;SDS011;2482;49.154;8.254;2024-02-14T11:54:18;2.93;;;1.67;;
4933;SDS011;2482;49.154;8.254;2024-02-14T11:56:46;2.60;;;1.40;;
4933;SDS011;2482;49.154;8.254;2024-02-14T11:59:14;2.80;;;1.60;;
4933;SDS011;2482;49.154;8.254;2024-02-14T12:01:43;1.80;;;1.67;;
4933;SDS011;2482;49.154;8.254;2024-02-14T12:04:12;2.30;;;1.50;;
4933;SDS011;2482;49.154;8.254;2024-02-14T12:06:40;2.90;;;1.90;;
4933;SDS011;2482;49.154;8.254;2024-02-14T12:09:08;1.60;;;1.50;;
4933;SDS011;2482;49.154;8.254;2024-02-14T12:11:36;5.57;;;2.83;;
4933;SDS011;2482;49.154;8.254;2024-02-14T12:14:08;6.47;;;1.97;;
4933;SDS011;2482;49.154;8.254;2024-02-14T12:16:36;2.47;;;2.20;;
4933;SDS011;2482;49.154;8.254;2024-02-14T12:19:07;2.70;;;1.70;;
4933;SDS011;2482;49.154;8.254;2024-02-14T12:21:38;3.20;;;1.73;;
4933;SDS011;2482;49.154;8.254;2024-02-14T12:24:06;5.60;;;1.93;;
4933;SDS011;2482;49.154;8.254;2024-02-14T12:26:37;2.53;;;1.70;;
4933;SDS011;2482;49.154;8.254;2024-02-14T12:29:05;3.33;;;1.90;;
4933;SDS011;2482;49.154;8.254;2024-02-14T12:31:34;3.20;;;1.70;;
4933;SDS011;2482;49.154;8.254;2024-02-14T12:34:03;2.47;;;1.70;;
4933;SDS011;2482;49.154;8.254;2024-02-14T12:36:32;5.27;;;2.10;;
4933;SDS011;2482;49.154;8.254;2024-02-14T12:39:01;4.20;;;1.73;;
4933;SDS011;2482;49.154;8.254;2024-02-14T12:41:30;3.03;;;1.70;;
4933;SDS011;2482;49.154;8.254;2024-02-14T12:43:58;2.53;;;1.80;;
4933;SDS011;2482;49.154;8.254;2024-02-14T12:46:26;2.97;;;1.70;;
4933;SDS011;2482;49.154;8.254;2024-02-14T12:48:54;3.00;;;1.80;;
4933;SDS011;2482;49.154;8.254;2024-02-14T12:51:21;3.47;;;1.80;;
4933;SDS011;2482;49.154;8.254;2024-02-14T12:53:48;2.30;;;1.40;;
4933;SDS011;2482;49.154;8.254;2024-02-14T12:56:15;3.93;;;1.63;;
4933;SDS011;2482;49.154;8.254;2024-02-14T12:58:43;2.90;;;1.70;;
4933;SDS011;2482;49.154;8.254;2024-02-14T13:01:13;4.33;;;1.63;;
4933;SDS011;2482;49.154;8.254;2024-02-14T13:03:41;1.20;;;1.07;;
4933;SDS011;2482;49.154;8.254;2024-02-14T13:06:08;2.80;;;1.93;;
4933;SDS011;2482;49.154;8.254;2024-02-14T13:08:35;1.57;;;1.47;;
4933;SDS011;2482;49.154;8.254;2024-02-14T13:11:05;2.17;;;1.60;;
4933;SDS011;2482;49.154;8.254;2024-02-14T13:13:35;3.27;;;1.43;;
4933;SDS011;2482;49.154;8.254;2024-02-14T13:16:03;1.40;;;1.30;;
4933;SDS011;2482;49.154;8.254;2024-02-14T13:18:32;2.03;;;1.30;;
4933;SDS011;2482;49.154;8.254;2024-02-14T13:21:01;2.00;;;1.40;;
4933;SDS011;2482;49.154;8.254;2024-02-14T13:23:29;1.53;;;1.30;;
4933;SDS011;2482;49.154;8.254;2024-02-14T13:25:57;1.10;;;1.00;;
4933;SDS011;2482;49.154;8.254;2024-02-14T13:28:24;1.10;;;1.10;;
4933;SDS011;2482;49.154;8.254;2024-02-14T13:30:52;1.40;;;1.10;;
4933;SDS011;2482;49.154;8.254;2024-02-14T13:33:22;1.00;;;1.00;;
4933;SDS011;2482;49.154;8.254;2024-02-14T13:35:49;1.80;;;1.10;;
4933;SDS011;2482;49.154;8.254;2024-02-14T13:38:17;1.23;;;1.10;;
4933;SDS011;2482;49.154;8.254;2024-02-14T13:40:44;2.07;;;1.63;;
4933;SDS011;2482;49.154;8.254;2024-02-14T13:43:11;4.93;;;1.60;;
4933;SDS011;2482;49.154;8.254;2024-02-14T13:45:44;1.33;;;1.23;;
4933;SDS011;2482;49.154;8.254;2024-02-14T13:48:13;2.10;;;1.30;;
4933;SDS011;2482;49.154;8.254;2024-02-14T13:50:41;2.20;;;1.07;;
4933;SDS011;2482;49.154;8.254;2024-02-14T13:53:09;2.03;;;0.87;;
4933;SDS011;2482;49.154;8.254;2024-02-14T13:55:37;6.23;;;1.33;;
4933;SDS011;2482;49.154;8.254;2024-02-14T13:58:06;0.80;;;0.80;;
4933;SDS011;2482;49.154;8.254;2024-02-14T14:00:40;2.20;;;0.90;;
4933;SDS011;2482;49.154;8.254;2024-02-14T14:03:07;1.70;;;1.40;;
4933;SDS011;2482;49.154;8.254;2024-02-14T14:05:34;2.30;;;0.90;;
4933;SDS011;2482;49.154;8.254;2024-02-14T14:08:02;1.20;;;1.10;;
4933;SDS011;2482;49.154;8.254;2024-02-14T14:10:29;4.10;;;1.10;;
4933;SDS011;2482;49.154;8.254;2024-02-14T14:12:56;1.20;;;1.10;;
4933;SDS011;2482;49.154;8.254;2024-02-14T14:15:23;1.27;;;1.03;;
4933;SDS011;2482;49.154;8.254;2024-02-14T14:17:53;1.50;;;1.00;;
4933;SDS011;2482;49.154;8.254;2024-02-14T14:20:20;1.00;;;1.00;;
4933;SDS011;2482;49.154;8.254;2024-02-14T14:22:47;2.03;;;1.30;;
4933;SDS011;2482;49.154;8.254;2024-02-14T14:25:14;0.80;;;0.80;;
4933;SDS011;2482;49.154;8.254;2024-02-14T14:27:42;1.73;;;0.90;;
4933;SDS011;2482;49.154;8.254;2024-02-14T14:30:10;1.53;;;1.03;;
4933;SDS011;2482;49.154;8.254;2024-02-14T14:32:38;1.17;;;1.07;;
4933;SDS011;2482;49.154;8.254;2024-02-14T14:35:07;2.40;;;1.20;;
4933;SDS011;2482;49.154;8.254;2024-02-14T14:37:37;1.33;;;1.23;;
4933;SDS011;2482;49.154;8.254;2024-02-14T14:40:04;1.87;;;1.27;;
4933;SDS011;2482;49.154;8.254;2024-02-14T14:42:34;1.87;;;1.07;;
4933;SDS011;2482;49.154;8.254;2024-02-14T14:45:01;2.63;;;1.30;;
4933;SDS011;2482;49.154;8.254;2024-02-14T14:47:31;2.23;;;1.30;;
4933;SDS011;2482;49.154;8.254;2024-02-14T14:49:58;2.30;;;1.60;;
4933;SDS011;2482;49.154;8.254;2024-02-14T14:52:25;6.40;;;1.60;;
4933;SDS011;2482;49.154;8.254;2024-02-14T14:54:53;2.57;;;1.90;;
4933;SDS011;2482;49.154;8.254;2024-02-14T14:57:20;3.37;;;1.60;;
4933;SDS011;2482;49.154;8.254;2024-02-14T14:59:47;1.70;;;1.20;;
4933;SDS011;2482;49.154;8.254;2024-02-14T15:02:14;2.30;;;1.80;;
4933;SDS011;2482;49.154;8.254;2024-02-14T15:04:41;2.97;;;1.83;;
4933;SDS011;2482;49.154;8.254;2024-02-14T15:07:10;2.67;;;1.73;;
4933;SDS011;2482;49.154;8.254;2024-02-14T15:09:38;1.67;;;1.43;;
4933;SDS011;2482;49.154;8.254;2024-02-14T15:12:05;1.97;;;1.73;;
4933;SDS011;2482;49.154;8.254;2024-02-14T15:14:33;4.00;;;1.90;;
4933;SDS011;2482;49.154;8.254;2024-02-14T15:17:00;1.77;;;1.57;;
4933;SDS011;2482;49.154;8.254;2024-02-14T15:19:27;1.33;;;1.20;;
4933;SDS011;2482;49.154;8.254;2024-02-14T15:21:55;1.90;;;1.43;;
4933;SDS011;2482;49.154;8.254;2024-02-14T15:24:22;1.50;;;1.40;;
4933;SDS011;2482;49.154;8.254;2024-02-14T15:26:49;3.57;;;1.73;;
4933;SDS011;2482;49.154;8.254;2024-02-14T15:29:19;2.83;;;1.63;;